sensor_id;sensor_type;location;lat;lon;timestamp;P1;durP1;ratioP1;P2;durP2;ratioP2
83630;SDS011;73593;52.134;5.426;2024-02-21T00:02:22;7.82;;;2.40;;
83630;SDS011;73593;52.134;5.426;2024-02-21T00:04:48;11.10;;;2.45;;
83630;SDS011;73593;52.134;5.426;2024-02-21T00:07:16;12.45;;;3.10;;
83630;SDS011;73593;52.134;5.426;2024-02-21T00:09:43;7.75;;;2.83;;
83630;SDS011;73593;52.134;5.426;2024-02-21T00:12:11;7.40;;;2.33;;
83630;SDS011;73593;52.134;5.426;2024-02-21T00:14:40;11.05;;;2.55;;
83630;SDS011;73593;52.134;5.426;2024-02-21T00:17:07;11.52;;;2.42;;
83630;SDS011;73593;52.134;5.426;2024-02-21T00:19:39;7.35;;;2.38;;
83630;SDS011;73593;52.134;5.426;2024-02-21T00:22:08;7.53;;;3.08;;
83630;SDS011;73593;52.134;5.426;2024-02-21T00:24:34;9.45;;;2.65;;
83630;SDS011;73593;52.134;5.426;2024-02-21T00:27:03;8.43;;;2.13;;
83630;SDS011;73593;52.134;5.426;2024-02-21T00:29:30;6.65;;;2.45;;
83630;SDS011;73593;52.134;5.426;2024-02-21T00:31:57;8.52;;;2.40;;
83630;SDS011;73593;52.134;5.426;2024-02-21T00:34:23;10.77;;;2.17;;
83630;SDS011;73593;52.134;5.426;2024-02-21T00:36:53;8.80;;;2.20;;
83630;SDS011;73593;52.134;5.426;2024-02-21T00:39:19;10.70;;;2.40;;
83630;SDS011;73593;52.134;5.426;2024-02-21T00:41:46;12.05;;;2.50;;
83630;SDS011;73593;52.134;5.426;2024-02-21T00:44:13;7.72;;;1.90;;
83630;SDS011;73593;52.134;5.426;2024-02-21T00:46:42;5.95;;;1.70;;
83630;SDS011;73593;52.134;5.426;2024-02-21T00:49:09;7.10;;;2.45;;
83630;SDS011;73593;52.134;5.426;2024-02-21T00:51:35;9.98;;;2.03;;
83630;SDS011;73593;52.134;5.426;2024-02-21T00:54:02;10.50;;;2.45;;
83630;SDS011;73593;52.134;5.426;2024-02-21T00:56:31;8.88;;;2.58;;
83630;SDS011;73593;52.134;5.426;2024-02-21T00:59:00;11.93;;;2.42;;
83630;SDS011;73593;52.134;5.426;2024-02-21T01:01:27;8.90;;;2.08;;
83630;SDS011;73593;52.134;5.426;2024-02-21T01:03:53;9.20;;;2.53;;
83630;SDS011;73593;52.134;5.426;2024-02-21T01:06:25;9.10;;;2.45;;
83630;SDS011;73593;52.134;5.426;2024-02-21T01:08:52;12.05;;;2.55;;
83630;SDS011;73593;52.134;5.426;2024-02-21T01:11:19;8.73;;;2.47;;
83630;SDS011;73593;52.134;5.426;2024-02-21T01:13:48;8.20;;;2.60;;
83630;SDS011;73593;52.134;5.426;2024-02-21T01:16:20;11.23;;;2.67;;
83630;SDS011;73593;52.134;5.426;2024-02-21T01:18:46;7.97;;;2.70;;
83630;SDS011;73593;52.134;5.426;2024-02-21T01:21:16;10.23;;;2.60;;
83630;SDS011;73593;52.134;5.426;2024-02-21T01:23:42;9.20;;;2.70;;
83630;SDS011;73593;52.134;5.426;2024-02-21T01:26:11;6.22;;;2.25;;
83630;SDS011;73593;52.134;5.426;2024-02-21T01:28:42;10.43;;;3.10;;
83630;SDS011;73593;52.134;5.426;2024-02-21T01:31:11;10.07;;;3.03;;
83630;SDS011;73593;52.134;5.426;2024-02-21T01:33:41;10.40;;;2.97;;
83630;SDS011;73593;52.134;5.426;2024-02-21T01:36:11;10.60;;;3.38;;
83630;SDS011;73593;52.134;5.426;2024-02-21T01:38:38;14.35;;;2.88;;
83630;SDS011;73593;52.134;5.426;2024-02-21T01:41:07;11.20;;;3.03;;
83630;SDS011;73593;52.134;5.426;2024-02-21T01:43:36;8.35;;;3.03;;
83630;SDS011;73593;52.134;5.426;2024-02-21T01:46:02;8.32;;;3.13;;
83630;SDS011;73593;52.134;5.426;2024-02-21T01:48:29;8.35;;;2.90;;
83630;SDS011;73593;52.134;5.426;2024-02-21T01:50:56;8.55;;;3.25;;
83630;SDS011;73593;52.134;5.426;2024-02-21T01:53:30;8.60;;;3.10;;
83630;SDS011;73593;52.134;5.426;2024-02-21T01:56:03;7.70;;;3.00;;
83630;SDS011;73593;52.134;5.426;2024-02-21T01:58:32;13.30;;;3.58;;
83630;SDS011;73593;52.134;5.426;2024-02-21T02:01:06;6.82;;;2.83;;
83630;SDS011;73593;52.134;5.426;2024-02-21T02:03:32;9.95;;;3.45;;
83630;SDS011;73593;52.134;5.426;2024-02-21T02:05:59;10.82;;;3.00;;
83630;SDS011;73593;52.134;5.426;2024-02-21T02:08:26;6.47;;;2.97;;
83630;SDS011;73593;52.134;5.426;2024-02-21T02:10:55;7.63;;;3.00;;
83630;SDS011;73593;52.134;5.426;2024-02-21T02:13:25;10.98;;;3.38;;
83630;SDS011;73593;52.134;5.426;2024-02-21T02:15:52;9.13;;;2.75;;
83630;SDS011;73593;52.134;5.426;2024-02-21T02:18:19;15.40;;;3.60;;
83630;SDS011;73593;52.134;5.426;2024-02-21T02:20:47;8.95;;;2.70;;
83630;SDS011;73593;52.134;5.426;2024-02-21T02:25:55;9.13;;;2.85;;
83630;SDS011;73593;52.134;5.426;2024-02-21T02:28:24;10.57;;;4.03;;
83630;SDS011;73593;52.134;5.426;2024-02-21T02:30:53;7.05;;;3.30;;
83630;SDS011;73593;52.134;5.426;2024-02-21T02:33:20;11.57;;;3.67;;
83630;SDS011;73593;52.134;5.426;2024-02-21T02:35:47;13.52;;;3.33;;
83630;SDS011;73593;52.134;5.426;2024-02-21T02:38:16;8.93;;;3.30;;
83630;SDS011;73593;52.134;5.426;2024-02-21T02:40:43;12.05;;;3.75;;
83630;SDS011;73593;52.134;5.426;2024-02-21T02:43:10;14.20;;;3.65;;
83630;SDS011;73593;52.134;5.426;2024-02-21T02:45:39;10.35;;;3.70;;
83630;SDS011;73593;52.134;5.426;2024-02-21T02:48:10;15.70;;;3.85;;
83630;SDS011;73593;52.134;5.426;2024-02-21T02:50:39;11.55;;;3.38;;
83630;SDS011;73593;52.134;5.426;2024-02-21T02:53:06;11.48;;;3.60;;
83630;SDS011;73593;52.134;5.426;2024-02-21T02:55:33;11.40;;;3.38;;
83630;SDS011;73593;52.134;5.426;2024-02-21T02:58:01;12.43;;;4.38;;
83630;SDS011;73593;52.134;5.426;2024-02-21T03:00:31;12.27;;;3.35;;
83630;SDS011;73593;52.134;5.426;2024-02-21T03:03:02;15.65;;;3.92;;
83630;SDS011;73593;52.134;5.426;2024-02-21T03:05:32;8.38;;;3.00;;
83630;SDS011;73593;52.134;5.426;2024-02-21T03:07:59;10.45;;;2.97;;
83630;SDS011;73593;52.134;5.426;2024-02-21T03:10:26;14.75;;;3.70;;
83630;SDS011;73593;52.134;5.426;2024-02-21T03:12:52;12.15;;;3.60;;
83630;SDS011;73593;52.134;5.426;2024-02-21T03:15:19;9.30;;;2.80;;
83630;SDS011;73593;52.134;5.426;2024-02-21T03:17:46;10.52;;;3.05;;
83630;SDS011;73593;52.134;5.426;2024-02-21T03:20:15;9.55;;;3.47;;
83630;SDS011;73593;52.134;5.426;2024-02-21T03:22:42;12.20;;;3.83;;
83630;SDS011;73593;52.134;5.426;2024-02-21T03:25:09;8.27;;;2.95;;
83630;SDS011;73593;52.134;5.426;2024-02-21T03:27:39;10.18;;;3.22;;
83630;SDS011;73593;52.134;5.426;2024-02-21T03:30:06;11.65;;;3.03;;
83630;SDS011;73593;52.134;5.426;2024-02-21T03:32:35;10.13;;;3.90;;
83630;SDS011;73593;52.134;5.426;2024-02-21T03:35:02;13.43;;;3.17;;
83630;SDS011;73593;52.134;5.426;2024-02-21T03:37:29;16.92;;;3.50;;
83630;SDS011;73593;52.134;5.426;2024-02-21T03:39:58;10.02;;;3.20;;
83630;SDS011;73593;52.134;5.426;2024-02-21T03:42:28;15.18;;;4.38;;
83630;SDS011;73593;52.134;5.426;2024-02-21T03:45:00;8.95;;;3.72;;
83630;SDS011;73593;52.134;5.426;2024-02-21T03:47:30;9.10;;;3.08;;
83630;SDS011;73593;52.134;5.426;2024-02-21T03:49:59;11.55;;;3.28;;
83630;SDS011;73593;52.134;5.426;2024-02-21T03:52:28;15.07;;;3.90;;
83630;SDS011;73593;52.134;5.426;2024-02-21T03:54:55;9.57;;;3.95;;
83630;SDS011;73593;52.134;5.426;2024-02-21T03:57:24;10.45;;;3.97;;
83630;SDS011;73593;52.134;5.426;2024-02-21T03:59:53;7.80;;;3.25;;
83630;SDS011;73593;52.134;5.426;2024-02-21T04:02:20;9.25;;;3.70;;
83630;SDS011;73593;52.134;5.426;2024-02-21T04:04:47;12.70;;;3.47;;
83630;SDS011;73593;52.134;5.426;2024-02-21T04:07:14;8.82;;;3.40;;
83630;SDS011;73593;52.134;5.426;2024-02-21T04:09:44;8.43;;;3.10;;
83630;SDS011;73593;52.134;5.426;2024-02-21T04:12:10;13.55;;;3.88;;
83630;SDS011;73593;52.134;5.426;2024-02-21T04:14:37;8.02;;;3.33;;
83630;SDS011;73593;52.134;5.426;2024-02-21T04:17:03;11.65;;;3.13;;
83630;SDS011;73593;52.134;5.426;2024-02-21T04:19:33;7.28;;;3.10;;
83630;SDS011;73593;52.134;5.426;2024-02-21T04:22:00;10.68;;;3.45;;
83630;SDS011;73593;52.134;5.426;2024-02-21T04:24:27;7.53;;;3.30;;
83630;SDS011;73593;52.134;5.426;2024-02-21T04:26:56;9.48;;;3.80;;
83630;SDS011;73593;52.134;5.426;2024-02-21T04:29:25;9.65;;;3.10;;
83630;SDS011;73593;52.134;5.426;2024-02-21T04:31:54;11.93;;;3.45;;
83630;SDS011;73593;52.134;5.426;2024-02-21T04:34:20;14.38;;;3.42;;
83630;SDS011;73593;52.134;5.426;2024-02-21T04:36:52;10.65;;;3.47;;
83630;SDS011;73593;52.134;5.426;2024-02-21T04:39:21;13.10;;;3.70;;
83630;SDS011;73593;52.134;5.426;2024-02-21T04:41:50;12.95;;;3.60;;
83630;SDS011;73593;52.134;5.426;2024-02-21T04:44:17;8.85;;;3.33;;
83630;SDS011;73593;52.134;5.426;2024-02-21T04:46:48;11.20;;;3.42;;
83630;SDS011;73593;52.134;5.426;2024-02-21T04:49:17;10.07;;;3.35;;
83630;SDS011;73593;52.134;5.426;2024-02-21T04:51:45;9.55;;;3.40;;
83630;SDS011;73593;52.134;5.426;2024-02-21T04:54:14;7.18;;;3.17;;
83630;SDS011;73593;52.134;5.426;2024-02-21T04:56:43;11.38;;;3.47;;
83630;SDS011;73593;52.134;5.426;2024-02-21T04:59:21;10.18;;;3.30;;
83630;SDS011;73593;52.134;5.426;2024-02-21T05:01:47;14.40;;;3.70;;
83630;SDS011;73593;52.134;5.426;2024-02-21T05:04:14;9.50;;;3.50;;
83630;SDS011;73593;52.134;5.426;2024-02-21T05:06:46;7.93;;;3.10;;
83630;SDS011;73593;52.134;5.426;2024-02-21T05:09:17;9.25;;;3.72;;
83630;SDS011;73593;52.134;5.426;2024-02-21T05:11:44;9.00;;;3.58;;
83630;SDS011;73593;52.134;5.426;2024-02-21T05:14:13;8.18;;;3.40;;
83630;SDS011;73593;52.134;5.426;2024-02-21T05:16:40;12.48;;;4.05;;
83630;SDS011;73593;52.134;5.426;2024-02-21T05:19:07;10.70;;;3.78;;
83630;SDS011;73593;52.134;5.426;2024-02-21T05:21:36;8.65;;;3.33;;
83630;SDS011;73593;52.134;5.426;2024-02-21T05:24:03;9.48;;;3.53;;
83630;SDS011;73593;52.134;5.426;2024-02-21T05:26:34;9.55;;;4.10;;
83630;SDS011;73593;52.134;5.426;2024-02-21T05:29:01;13.85;;;4.75;;
83630;SDS011;73593;52.134;5.426;2024-02-21T05:34:20;13.30;;;3.80;;
83630;SDS011;73593;52.134;5.426;2024-02-21T05:36:51;9.05;;;3.75;;
83630;SDS011;73593;52.134;5.426;2024-02-21T05:39:20;8.50;;;3.33;;
83630;SDS011;73593;52.134;5.426;2024-02-21T05:41:50;9.63;;;4.05;;
83630;SDS011;73593;52.134;5.426;2024-02-21T05:44:18;11.15;;;4.10;;
83630;SDS011;73593;52.134;5.426;2024-02-21T05:46:45;8.48;;;3.97;;
83630;SDS011;73593;52.134;5.426;2024-02-21T05:49:12;10.70;;;3.78;;
83630;SDS011;73593;52.134;5.426;2024-02-21T05:51:44;11.63;;;4.03;;
83630;SDS011;73593;52.134;5.426;2024-02-21T05:54:11;12.68;;;3.58;;
83630;SDS011;73593;52.134;5.426;2024-02-21T05:56:43;8.50;;;3.95;;
83630;SDS011;73593;52.134;5.426;2024-02-21T05:59:11;8.15;;;3.78;;
83630;SDS011;73593;52.134;5.426;2024-02-21T06:01:37;7.78;;;3.97;;
83630;SDS011;73593;52.134;5.426;2024-02-21T06:04:06;11.52;;;4.50;;
83630;SDS011;73593;52.134;5.426;2024-02-21T06:06:35;11.02;;;4.47;;
83630;SDS011;73593;52.134;5.426;2024-02-21T06:09:05;10.02;;;4.05;;
83630;SDS011;73593;52.134;5.426;2024-02-21T06:11:32;11.15;;;4.75;;
83630;SDS011;73593;52.134;5.426;2024-02-21T06:13:59;10.00;;;4.28;;
83630;SDS011;73593;52.134;5.426;2024-02-21T06:16:26;10.52;;;4.38;;
83630;SDS011;73593;52.134;5.426;2024-02-21T06:18:53;9.75;;;4.40;;
83630;SDS011;73593;52.134;5.426;2024-02-21T06:21:20;11.23;;;4.53;;
83630;SDS011;73593;52.134;5.426;2024-02-21T06:23:51;10.18;;;4.38;;
83630;SDS011;73593;52.134;5.426;2024-02-21T06:26:20;12.40;;;4.43;;
83630;SDS011;73593;52.134;5.426;2024-02-21T06:28:49;10.55;;;4.18;;
83630;SDS011;73593;52.134;5.426;2024-02-21T06:31:18;12.82;;;5.35;;
83630;SDS011;73593;52.134;5.426;2024-02-21T06:33:45;12.15;;;4.93;;
83630;SDS011;73593;52.134;5.426;2024-02-21T06:36:12;12.52;;;5.63;;
83630;SDS011;73593;52.134;5.426;2024-02-21T06:38:40;14.73;;;5.88;;
83630;SDS011;73593;52.134;5.426;2024-02-21T06:41:16;14.52;;;5.75;;
83630;SDS011;73593;52.134;5.426;2024-02-21T06:43:45;14.60;;;5.63;;
83630;SDS011;73593;52.134;5.426;2024-02-21T06:46:22;11.43;;;5.80;;
83630;SDS011;73593;52.134;5.426;2024-02-21T06:48:58;16.92;;;6.57;;
83630;SDS011;73593;52.134;5.426;2024-02-21T06:51:26;16.45;;;6.43;;
83630;SDS011;73593;52.134;5.426;2024-02-21T06:53:56;15.68;;;6.07;;
83630;SDS011;73593;52.134;5.426;2024-02-21T06:56:25;14.88;;;6.22;;
83630;SDS011;73593;52.134;5.426;2024-02-21T06:58:55;18.10;;;6.90;;
83630;SDS011;73593;52.134;5.426;2024-02-21T07:01:23;15.38;;;6.22;;
83630;SDS011;73593;52.134;5.426;2024-02-21T07:03:50;19.13;;;6.88;;
83630;SDS011;73593;52.134;5.426;2024-02-21T07:06:19;16.48;;;6.72;;
83630;SDS011;73593;52.134;5.426;2024-02-21T07:08:48;17.50;;;7.15;;
83630;SDS011;73593;52.134;5.426;2024-02-21T07:11:15;16.38;;;7.13;;
83630;SDS011;73593;52.134;5.426;2024-02-21T07:13:42;17.52;;;7.68;;
83630;SDS011;73593;52.134;5.426;2024-02-21T07:16:09;21.05;;;7.47;;
83630;SDS011;73593;52.134;5.426;2024-02-21T07:18:38;17.48;;;7.40;;
83630;SDS011;73593;52.134;5.426;2024-02-21T07:21:05;20.45;;;6.85;;
83630;SDS011;73593;52.134;5.426;2024-02-21T07:23:42;16.80;;;7.30;;
83630;SDS011;73593;52.134;5.426;2024-02-21T07:26:11;19.88;;;7.47;;
83630;SDS011;73593;52.134;5.426;2024-02-21T07:28:40;14.95;;;6.25;;
83630;SDS011;73593;52.134;5.426;2024-02-21T07:31:06;18.90;;;6.57;;
83630;SDS011;73593;52.134;5.426;2024-02-21T07:33:33;18.70;;;6.78;;
83630;SDS011;73593;52.134;5.426;2024-02-21T07:36:06;16.30;;;5.75;;
83630;SDS011;73593;52.134;5.426;2024-02-21T07:38:41;18.35;;;6.10;;
83630;SDS011;73593;52.134;5.426;2024-02-21T07:41:08;17.63;;;5.57;;
83630;SDS011;73593;52.134;5.426;2024-02-21T07:43:35;14.13;;;6.07;;
83630;SDS011;73593;52.134;5.426;2024-02-21T07:46:02;16.60;;;5.53;;
83630;SDS011;73593;52.134;5.426;2024-02-21T07:48:30;17.77;;;6.07;;
83630;SDS011;73593;52.134;5.426;2024-02-21T07:51:03;10.82;;;5.40;;
83630;SDS011;73593;52.134;5.426;2024-02-21T07:53:30;14.13;;;5.05;;
83630;SDS011;73593;52.134;5.426;2024-02-21T07:55:59;14.20;;;6.35;;
83630;SDS011;73593;52.134;5.426;2024-02-21T07:58:28;13.45;;;5.85;;
83630;SDS011;73593;52.134;5.426;2024-02-21T08:00:57;15.50;;;6.50;;
83630;SDS011;73593;52.134;5.426;2024-02-21T08:03:24;16.60;;;6.10;;
83630;SDS011;73593;52.134;5.426;2024-02-21T08:05:52;13.23;;;5.47;;
83630;SDS011;73593;52.134;5.426;2024-02-21T08:08:18;14.90;;;5.25;;
83630;SDS011;73593;52.134;5.426;2024-02-21T08:10:50;13.05;;;5.53;;
83630;SDS011;73593;52.134;5.426;2024-02-21T08:13:17;15.25;;;6.22;;
83630;SDS011;73593;52.134;5.426;2024-02-21T08:15:44;17.30;;;5.47;;
83630;SDS011;73593;52.134;5.426;2024-02-21T08:18:14;15.75;;;5.95;;
83630;SDS011;73593;52.134;5.426;2024-02-21T08:20:43;12.07;;;5.95;;
83630;SDS011;73593;52.134;5.426;2024-02-21T08:23:15;17.33;;;6.75;;
83630;SDS011;73593;52.134;5.426;2024-02-21T08:25:42;12.35;;;5.53;;
83630;SDS011;73593;52.134;5.426;2024-02-21T08:28:09;15.07;;;6.22;;
83630;SDS011;73593;52.134;5.426;2024-02-21T08:30:35;16.02;;;5.80;;
83630;SDS011;73593;52.134;5.426;2024-02-21T08:33:14;18.10;;;5.80;;
83630;SDS011;73593;52.134;5.426;2024-02-21T08:35:43;12.55;;;5.93;;
83630;SDS011;73593;52.134;5.426;2024-02-21T08:38:09;19.08;;;5.65;;
83630;SDS011;73593;52.134;5.426;2024-02-21T08:40:36;14.88;;;6.15;;
83630;SDS011;73593;52.134;5.426;2024-02-21T08:43:03;15.45;;;6.93;;
83630;SDS011;73593;52.134;5.426;2024-02-21T08:45:32;23.90;;;11.10;;
83630;SDS011;73593;52.134;5.426;2024-02-21T08:47:59;16.27;;;6.40;;
83630;SDS011;73593;52.134;5.426;2024-02-21T08:50:28;17.45;;;6.65;;
83630;SDS011;73593;52.134;5.426;2024-02-21T08:52:55;15.25;;;6.22;;
83630;SDS011;73593;52.134;5.426;2024-02-21T08:55:24;14.30;;;6.18;;
83630;SDS011;73593;52.134;5.426;2024-02-21T08:57:51;15.38;;;6.05;;
83630;SDS011;73593;52.134;5.426;2024-02-21T09:00:20;17.05;;;6.13;;
83630;SDS011;73593;52.134;5.426;2024-02-21T09:51:19;11.02;;;4.90;;
83630;SDS011;73593;52.134;5.426;2024-02-21T09:53:49;12.38;;;4.28;;
83630;SDS011;73593;52.134;5.426;2024-02-21T09:56:38;9.80;;;4.00;;
83630;SDS011;73593;52.134;5.426;2024-02-21T09:59:08;11.77;;;4.28;;
83630;SDS011;73593;52.134;5.426;2024-02-21T10:01:35;14.18;;;4.30;;
83630;SDS011;73593;52.134;5.426;2024-02-21T10:04:02;14.40;;;5.15;;
83630;SDS011;73593;52.134;5.426;2024-02-21T10:06:31;12.00;;;4.78;;
83630;SDS011;73593;52.134;5.426;2024-02-21T10:08:59;10.65;;;4.43;;
83630;SDS011;73593;52.134;5.426;2024-02-21T10:11:28;11.27;;;3.58;;
83630;SDS011;73593;52.134;5.426;2024-02-21T10:14:04;11.77;;;3.97;;
83630;SDS011;73593;52.134;5.426;2024-02-21T10:16:34;10.52;;;3.85;;
83630;SDS011;73593;52.134;5.426;2024-02-21T10:19:04;15.43;;;4.38;;
83630;SDS011;73593;52.134;5.426;2024-02-21T10:21:33;10.50;;;4.20;;
83630;SDS011;73593;52.134;5.426;2024-02-21T10:24:00;8.25;;;3.92;;
83630;SDS011;73593;52.134;5.426;2024-02-21T10:26:29;10.52;;;3.58;;
83630;SDS011;73593;52.134;5.426;2024-02-21T10:28:55;10.20;;;3.70;;
83630;SDS011;73593;52.134;5.426;2024-02-21T10:31:25;8.70;;;3.55;;
83630;SDS011;73593;52.134;5.426;2024-02-21T10:33:57;9.27;;;3.13;;
83630;SDS011;73593;52.134;5.426;2024-02-21T10:46:18;14.15;;;3.50;;
83630;SDS011;73593;52.134;5.426;2024-02-21T10:49:10;9.48;;;3.22;;
83630;SDS011;73593;52.134;5.426;2024-02-21T10:51:41;9.35;;;3.50;;
83630;SDS011;73593;52.134;5.426;2024-02-21T10:56:55;6.97;;;2.83;;
83630;SDS011;73593;52.134;5.426;2024-02-21T10:59:24;6.82;;;3.10;;
83630;SDS011;73593;52.134;5.426;2024-02-21T11:01:55;7.18;;;2.88;;
83630;SDS011;73593;52.134;5.426;2024-02-21T11:04:25;7.03;;;2.78;;
83630;SDS011;73593;52.134;5.426;2024-02-21T11:06:53;7.80;;;3.33;;
83630;SDS011;73593;52.134;5.426;2024-02-21T11:09:32;8.57;;;3.72;;
83630;SDS011;73593;52.134;5.426;2024-02-21T11:12:01;6.88;;;3.20;;
83630;SDS011;73593;52.134;5.426;2024-02-21T11:14:39;8.43;;;3.10;;
83630;SDS011;73593;52.134;5.426;2024-02-21T11:19:50;12.43;;;5.00;;
83630;SDS011;73593;52.134;5.426;2024-02-21T11:22:19;8.30;;;3.20;;
83630;SDS011;73593;52.134;5.426;2024-02-21T11:24:51;7.57;;;3.55;;
83630;SDS011;73593;52.134;5.426;2024-02-21T11:27:22;7.88;;;3.40;;
83630;SDS011;73593;52.134;5.426;2024-02-21T11:29:55;8.10;;;3.80;;
83630;SDS011;73593;52.134;5.426;2024-02-21T11:32:22;7.10;;;3.72;;
83630;SDS011;73593;52.134;5.426;2024-02-21T11:34:55;8.77;;;3.75;;
83630;SDS011;73593;52.134;5.426;2024-02-21T11:37:30;8.27;;;4.07;;
83630;SDS011;73593;52.134;5.426;2024-02-21T11:40:00;9.23;;;3.80;;
83630;SDS011;73593;52.134;5.426;2024-02-21T11:42:30;9.27;;;4.00;;
83630;SDS011;73593;52.134;5.426;2024-02-21T11:44:57;7.53;;;3.60;;
83630;SDS011;73593;52.134;5.426;2024-02-21T11:47:29;8.05;;;3.72;;
83630;SDS011;73593;52.134;5.426;2024-02-21T11:49:56;9.27;;;3.95;;
83630;SDS011;73593;52.134;5.426;2024-02-21T11:52:25;8.65;;;3.75;;
83630;SDS011;73593;52.134;5.426;2024-02-21T11:54:54;9.13;;;3.97;;
83630;SDS011;73593;52.134;5.426;2024-02-21T11:57:31;10.02;;;3.97;;
83630;SDS011;73593;52.134;5.426;2024-02-21T12:00:14;8.60;;;4.18;;
83630;SDS011;73593;52.134;5.426;2024-02-21T12:02:54;8.98;;;3.97;;
83630;SDS011;73593;52.134;5.426;2024-02-21T12:05:22;9.10;;;3.38;;
83630;SDS011;73593;52.134;5.426;2024-02-21T12:07:49;9.90;;;4.28;;
83630;SDS011;73593;52.134;5.426;2024-02-21T12:10:18;8.30;;;3.70;;
83630;SDS011;73593;52.134;5.426;2024-02-21T12:12:45;7.38;;;3.40;;
83630;SDS011;73593;52.134;5.426;2024-02-21T12:15:14;8.93;;;4.13;;
83630;SDS011;73593;52.134;5.426;2024-02-21T12:17:41;8.23;;;4.65;;
83630;SDS011;73593;52.134;5.426;2024-02-21T12:20:08;10.25;;;4.30;;
83630;SDS011;73593;52.134;5.426;2024-02-21T12:22:41;10.18;;;4.03;;
83630;SDS011;73593;52.134;5.426;2024-02-21T12:25:20;11.20;;;4.22;;
83630;SDS011;73593;52.134;5.426;2024-02-21T12:27:52;10.52;;;4.20;;
83630;SDS011;73593;52.134;5.426;2024-02-21T12:30:19;8.45;;;3.40;;
83630;SDS011;73593;52.134;5.426;2024-02-21T12:32:46;8.70;;;4.03;;
83630;SDS011;73593;52.134;5.426;2024-02-21T12:35:13;10.45;;;4.13;;
83630;SDS011;73593;52.134;5.426;2024-02-21T12:37:42;10.07;;;3.58;;
83630;SDS011;73593;52.134;5.426;2024-02-21T12:40:09;7.82;;;3.42;;
83630;SDS011;73593;52.134;5.426;2024-02-21T12:42:41;9.30;;;3.45;;
83630;SDS011;73593;52.134;5.426;2024-02-21T12:45:11;10.18;;;3.85;;
83630;SDS011;73593;52.134;5.426;2024-02-21T12:47:42;11.45;;;4.25;;
83630;SDS011;73593;52.134;5.426;2024-02-21T12:50:09;6.22;;;2.97;;
83630;SDS011;73593;52.134;5.426;2024-02-21T12:52:38;7.65;;;3.40;;
83630;SDS011;73593;52.134;5.426;2024-02-21T12:55:05;7.20;;;3.47;;
83630;SDS011;73593;52.134;5.426;2024-02-21T12:57:41;10.05;;;3.95;;
83630;SDS011;73593;52.134;5.426;2024-02-21T13:00:08;7.15;;;3.50;;
83630;SDS011;73593;52.134;5.426;2024-02-21T13:02:35;11.18;;;3.45;;
83630;SDS011;73593;52.134;5.426;2024-02-21T13:05:07;10.80;;;3.53;;
83630;SDS011;73593;52.134;5.426;2024-02-21T13:07:34;9.68;;;3.60;;
83630;SDS011;73593;52.134;5.426;2024-02-21T13:10:01;7.07;;;3.20;;
83630;SDS011;73593;52.134;5.426;2024-02-21T13:12:27;9.38;;;4.03;;
83630;SDS011;73593;52.134;5.426;2024-02-21T13:14:59;7.50;;;2.75;;
83630;SDS011;73593;52.134;5.426;2024-02-21T13:17:25;8.18;;;3.08;;
83630;SDS011;73593;52.134;5.426;2024-02-21T13:19:57;9.73;;;3.20;;
83630;SDS011;73593;52.134;5.426;2024-02-21T13:22:24;10.15;;;3.13;;
83630;SDS011;73593;52.134;5.426;2024-02-21T13:24:55;6.68;;;2.55;;
83630;SDS011;73593;52.134;5.426;2024-02-21T13:27:24;10.00;;;2.85;;
83630;SDS011;73593;52.134;5.426;2024-02-21T13:29:55;7.80;;;2.90;;
83630;SDS011;73593;52.134;5.426;2024-02-21T13:32:22;10.05;;;2.60;;
83630;SDS011;73593;52.134;5.426;2024-02-21T13:34:49;10.88;;;3.03;;
83630;SDS011;73593;52.134;5.426;2024-02-21T13:37:19;9.00;;;3.85;;
83630;SDS011;73593;52.134;5.426;2024-02-21T13:39:48;9.07;;;3.90;;
83630;SDS011;73593;52.134;5.426;2024-02-21T13:42:14;6.68;;;2.90;;
83630;SDS011;73593;52.134;5.426;2024-02-21T13:44:48;7.40;;;2.80;;
83630;SDS011;73593;52.134;5.426;2024-02-21T13:47:14;7.63;;;2.70;;
83630;SDS011;73593;52.134;5.426;2024-02-21T13:49:41;6.30;;;3.05;;
83630;SDS011;73593;52.134;5.426;2024-02-21T13:52:08;8.07;;;3.20;;
83630;SDS011;73593;52.134;5.426;2024-02-21T13:54:38;7.57;;;3.13;;
83630;SDS011;73593;52.134;5.426;2024-02-21T13:57:05;8.27;;;2.78;;
83630;SDS011;73593;52.134;5.426;2024-02-21T13:59:31;7.13;;;2.78;;
83630;SDS011;73593;52.134;5.426;2024-02-21T14:02:02;7.43;;;2.58;;
83630;SDS011;73593;52.134;5.426;2024-02-21T14:04:28;10.95;;;2.67;;
83630;SDS011;73593;52.134;5.426;2024-02-21T14:07:00;10.18;;;2.55;;
83630;SDS011;73593;52.134;5.426;2024-02-21T14:09:32;5.90;;;3.00;;
83630;SDS011;73593;52.134;5.426;2024-02-21T14:11:59;8.95;;;2.08;;
83630;SDS011;73593;52.134;5.426;2024-02-21T14:14:28;6.57;;;2.70;;
83630;SDS011;73593;52.134;5.426;2024-02-21T14:16:55;12.45;;;3.13;;
83630;SDS011;73593;52.134;5.426;2024-02-21T14:19:22;8.45;;;2.33;;
83630;SDS011;73593;52.134;5.426;2024-02-21T14:21:51;10.35;;;2.80;;
83630;SDS011;73593;52.134;5.426;2024-02-21T14:24:25;8.80;;;2.67;;
83630;SDS011;73593;52.134;5.426;2024-02-21T14:26:54;9.25;;;2.45;;
83630;SDS011;73593;52.134;5.426;2024-02-21T14:29:32;8.00;;;2.63;;
83630;SDS011;73593;52.134;5.426;2024-02-21T14:32:46;9.38;;;2.35;;
83630;SDS011;73593;52.134;5.426;2024-02-21T14:35:13;6.28;;;2.30;;
83630;SDS011;73593;52.134;5.426;2024-02-21T14:37:40;7.28;;;2.42;;
83630;SDS011;73593;52.134;5.426;2024-02-21T14:40:09;7.38;;;2.33;;
83630;SDS011;73593;52.134;5.426;2024-02-21T14:42:38;6.25;;;2.20;;
83630;SDS011;73593;52.134;5.426;2024-02-21T14:45:05;8.10;;;2.88;;
83630;SDS011;73593;52.134;5.426;2024-02-21T14:47:32;7.22;;;2.75;;
83630;SDS011;73593;52.134;5.426;2024-02-21T14:50:02;6.07;;;2.20;;
83630;SDS011;73593;52.134;5.426;2024-02-21T14:52:35;4.72;;;2.00;;
83630;SDS011;73593;52.134;5.426;2024-02-21T14:55:03;5.50;;;2.05;;
83630;SDS011;73593;52.134;5.426;2024-02-21T14:57:31;6.32;;;2.08;;
83630;SDS011;73593;52.134;5.426;2024-02-21T14:59:58;6.45;;;2.33;;
83630;SDS011;73593;52.134;5.426;2024-02-21T15:02:28;8.65;;;2.42;;
83630;SDS011;73593;52.134;5.426;2024-02-21T15:04:55;7.85;;;2.53;;
83630;SDS011;73593;52.134;5.426;2024-02-21T15:07:22;7.40;;;2.97;;
83630;SDS011;73593;52.134;5.426;2024-02-21T15:09:51;5.65;;;2.20;;
83630;SDS011;73593;52.134;5.426;2024-02-21T15:12:20;9.27;;;2.60;;
83630;SDS011;73593;52.134;5.426;2024-02-21T15:14:52;8.80;;;3.50;;
83630;SDS011;73593;52.134;5.426;2024-02-21T15:17:18;9.52;;;3.55;;
83630;SDS011;73593;52.134;5.426;2024-02-21T15:19:45;10.30;;;2.70;;
83630;SDS011;73593;52.134;5.426;2024-02-21T15:22:16;8.88;;;2.50;;
83630;SDS011;73593;52.134;5.426;2024-02-21T15:24:44;6.10;;;2.35;;
83630;SDS011;73593;52.134;5.426;2024-02-21T15:27:14;10.38;;;2.75;;
83630;SDS011;73593;52.134;5.426;2024-02-21T15:29:41;6.15;;;2.47;;
83630;SDS011;73593;52.134;5.426;2024-02-21T15:32:09;7.25;;;2.70;;
83630;SDS011;73593;52.134;5.426;2024-02-21T15:34:36;6.95;;;2.40;;
83630;SDS011;73593;52.134;5.426;2024-02-21T15:37:27;7.43;;;2.85;;
83630;SDS011;73593;52.134;5.426;2024-02-21T15:44:50;7.80;;;2.72;;
83630;SDS011;73593;52.134;5.426;2024-02-21T15:47:27;6.40;;;2.40;;
83630;SDS011;73593;52.134;5.426;2024-02-21T15:50:22;7.28;;;2.75;;
83630;SDS011;73593;52.134;5.426;2024-02-21T15:53:00;6.32;;;2.47;;
83630;SDS011;73593;52.134;5.426;2024-02-21T15:58:49;6.97;;;2.78;;
83630;SDS011;73593;52.134;5.426;2024-02-21T16:01:31;8.43;;;3.05;;
83630;SDS011;73593;52.134;5.426;2024-02-21T16:08:07;7.28;;;2.90;;
83630;SDS011;73593;52.134;5.426;2024-02-21T16:10:52;8.30;;;2.97;;
83630;SDS011;73593;52.134;5.426;2024-02-21T16:17:28;8.35;;;4.10;;
83630;SDS011;73593;52.134;5.426;2024-02-21T16:19:59;9.23;;;2.67;;